Time;durP1;ratioP1;P1;durP2;ratioP2;P2;SDS_P1;SDS_P2;PMS_P1;PMS_P2;Temp;Humidity;BMP_temperature;BMP_pressure;BME280_temperature;BME280_humidity;BME280_pressure;Samples;Min_cycle;Max_cycle;Signal;HPM_P1;HPM_P2
2023/04/19 00:02:00;;;;;;;;;;;;;;;12.87;40.12;102898.78;5005660;28;20064;-83
2023/04/19 00:04:25;;;;;;;;;;;;;;;12.84;40.37;102899.22;5008857;28;19921;-83
2023/04/19 00:06:51;;;;;;;;;;;;;;;12.78;40.17;102899.25;5029886;28;19999;-84
2023/04/19 00:09:17;;;;;;;;;;;;;;;12.72;40.10;102887.44;5026351;28;19917;-85
2023/04/19 00:11:42;;;;;;;;;;;;;;;12.69;40.17;102890.56;5028087;28;20323;-84
2023/04/19 00:14:08;;;;;;;;;;;;;;;12.64;40.42;102888.50;5026961;28;20020;-83
2023/04/19 00:16:33;;;;;;;;;;;;;;;12.55;40.37;102880.84;5028222;28;19933;-84
2023/04/19 00:18:58;;;;;;;;;;;;;;;12.47;40.28;102876.53;5025569;28;19924;-84
2023/04/19 00:21:25;;;;;;;;;;;;;;;12.40;40.57;102868.47;5026928;28;19921;-86
2023/04/19 00:23:50;;;;;;;;;;;;;;;12.35;40.45;102876.31;5026259;28;19960;-83
2023/04/19 00:26:15;;;;;;;;;;;;;;;12.28;40.68;102888.13;5029271;28;20038;-86
2023/04/19 00:28:41;;;;;;;;;;;;;;;12.19;40.28;102868.69;5025828;28;19953;-83
2023/04/19 00:31:06;;;;;;;;;;;;;;;12.16;40.79;102868.28;5023920;28;19931;-86
2023/04/19 00:33:32;;;;;;;;;;;;;;;12.15;40.81;102869.31;5026500;28;19921;-84
2023/04/19 00:35:57;;;;;;;;;;;;;;;12.15;40.65;102867.44;5029610;28;20383;-85
2023/04/19 00:38:23;;;;;;;;;;;;;;;12.11;40.85;102866.22;5021967;28;20208;-84
2023/04/19 00:40:48;;;;;;;;;;;;;;;12.10;40.69;102860.00;5030464;28;19924;-86
2023/04/19 00:43:20;;;;;;;;;;;;;;;12.06;40.56;102863.31;5025838;28;19921;-85
2023/04/19 00:45:47;;;;;;;;;;;;;;;12.02;40.72;102856.69;5027532;28;19925;-83
2023/04/19 00:48:12;;;;;;;;;;;;;;;11.98;40.47;102861.66;5027723;28;19952;-84
2023/04/19 00:50:38;;;;;;;;;;;;;;;11.94;40.64;102855.03;5028250;28;19975;-83
2023/04/19 00:53:03;;;;;;;;;;;;;;;11.93;40.64;102847.19;5025953;28;19953;-84
2023/04/19 00:55:29;;;;;;;;;;;;;;;11.89;40.59;102846.78;5025344;28;20426;-84
2023/04/19 00:57:54;;;;;;;;;;;;;;;11.89;40.58;102845.97;5029208;28;19928;-84
2023/04/19 01:00:19;;;;;;;;;;;;;;;11.91;40.93;102843.88;5025766;28;20012;-84
2023/04/19 01:02:46;;;;;;;;;;;;;;;11.91;40.52;102843.88;5029949;28;20043;-84
2023/04/19 01:05:11;;;;;;;;;;;;;;;11.92;40.62;102841.00;5027291;28;20006;-83
2023/04/19 01:07:36;;;;;;;;;;;;;;;11.92;40.47;102840.16;5026981;28;19967;-84
2023/04/19 01:10:05;;;;;;;;;;;;;;;11.88;40.58;102842.44;5028255;28;19928;-84
2023/04/19 01:12:30;;;;;;;;;;;;;;;11.83;40.63;102834.16;5026828;28;21625;-85
2023/04/19 01:14:56;;;;;;;;;;;;;;;11.80;40.37;102829.19;5027172;28;19921;-84
2023/04/19 01:17:21;;;;;;;;;;;;;;;11.75;40.60;102823.59;5029551;28;19939;-85
2023/04/19 01:19:47;;;;;;;;;;;;;;;11.73;40.58;102820.28;5026962;28;19944;-84
2023/04/19 01:22:17;;;;;;;;;;;;;;;11.65;40.24;102820.47;5022883;28;19917;-84
2023/04/19 01:24:43;;;;;;;;;;;;;;;11.59;40.87;102816.75;5029714;28;19917;-83
2023/04/19 01:27:08;;;;;;;;;;;;;;;11.56;40.74;102811.81;5035997;28;19987;-84
2023/04/19 01:29:34;;;;;;;;;;;;;;;11.51;40.62;102814.28;5041883;28;19921;-86
2023/04/19 01:31:59;;;;;;;;;;;;;;;11.50;40.95;102815.31;5043018;28;19940;-85
2023/04/19 01:34:24;;;;;;;;;;;;;;;11.52;40.82;102818.63;5039412;28;19932;-84
2023/04/19 01:36:50;;;;;;;;;;;;;;;11.54;40.83;102810.34;5042501;28;19931;-86
2023/04/19 01:39:15;;;;;;;;;;;;;;;11.56;nan;102808.28;5042473;28;19988;-84
2023/04/19 01:41:41;;;;;;;;;;;;;;;11.55;nan;102806.63;5040827;28;19928;-84
2023/04/19 01:44:06;;;;;;;;;;;;;;;11.54;nan;102802.31;5039537;28;19940;-85
2023/04/19 01:46:32;;;;;;;;;;;;;;;11.53;nan;102800.66;5042496;28;19967;-85
2023/04/19 01:48:57;;;;;;;;;;;;;;;11.47;nan;102800.41;5039930;28;19925;-85
2023/04/19 01:51:22;;;;;;;;;;;;;;;11.45;nan;102790.91;5043119;28;19925;-86
2023/04/19 01:53:52;;;;;;;;;;;;;;;11.44;nan;102789.25;5040254;28;19921;-85
2023/04/19 01:56:18;;;;;;;;;;;;;;;11.44;nan;102789.25;5042469;28;19932;-84
2023/04/19 01:58:43;;;;;;;;;;;;;;;11.43;nan;102777.69;5039145;28;19921;-83
2023/04/19 02:01:11;;;;;;;;;;;;;;;11.42;nan;102772.53;5039298;28;20043;-85
2023/04/19 02:03:37;;;;;;;;;;;;;;;11.43;nan;102772.34;5042260;28;19928;-84
2023/04/19 02:06:02;;;;;;;;;;;;;;;11.42;nan;102765.31;5041371;28;19984;-84
2023/04/19 02:08:28;;;;;;;;;;;;;;;11.44;nan;102762.41;5040626;28;19944;-85
2023/04/19 02:10:53;;;;;;;;;;;;;;;11.43;nan;102758.91;5043042;28;19984;-83
2023/04/19 02:13:19;;;;;;;;;;;;;;;11.43;nan;102766.97;5042202;28;19925;-84
2023/04/19 02:15:44;;;;;;;;;;;;;;;11.41;nan;102768.19;5042289;28;19928;-85
2023/04/19 02:18:10;;;;;;;;;;;;;;;11.40;nan;102774.59;5043799;28;19927;-85
2023/04/19 02:20:36;;;;;;;;;;;;;;;11.34;nan;102770.88;5034628;28;19921;-84
2023/04/19 02:23:01;;;;;;;;;;;;;;;11.28;nan;102766.31;5032730;28;19968;-83
2023/04/19 02:25:26;;;;;;;;;;;;;;;11.20;nan;102761.97;5031477;28;19928;-83
2023/04/19 02:27:52;;;;;;;;;;;;;;;11.18;nan;102763.22;5024133;28;20909;-84
2023/04/19 02:30:18;;;;;;;;;;;;;;;11.12;nan;102754.09;5029349;28;19925;-83
2023/04/19 02:32:43;;;;;;;;;;;;;;;11.11;nan;102759.66;5026619;28;19919;-84
2023/04/19 02:35:08;;;;;;;;;;;;;;;11.09;nan;102743.78;5030162;28;19928;-83
2023/04/19 02:37:34;;;;;;;;;;;;;;;11.07;nan;102748.53;5030581;28;19964;-84
2023/04/19 02:39:59;;;;;;;;;;;;;;;11.04;nan;102742.75;5029067;28;19921;-83
2023/04/19 02:42:25;;;;;;;;;;;;;;;11.04;nan;102746.25;5031656;28;20012;-83
2023/04/19 02:44:50;;;;;;;;;;;;;;;11.01;nan;102741.28;5030397;28;20298;-84
2023/04/19 02:47:15;;;;;;;;;;;;;;;10.98;nan;102735.50;5028614;28;19953;-84
2023/04/19 02:49:41;;;;;;;;;;;;;;;10.93;nan;102738.78;5030874;28;19921;-83
2023/04/19 02:52:07;;;;;;;;;;;;;;;10.90;nan;102741.88;5029268;28;19931;-85
2023/04/19 02:54:33;;;;;;;;;;;;;;;10.87;nan;102731.53;5032940;28;19979;-84
2023/04/19 02:56:58;;;;;;;;;;;;;;;10.80;nan;102731.53;5032949;28;20382;-85
2023/04/19 02:59:24;;;;;;;;;;;;;;;10.77;nan;102731.09;5026233;28;19924;-83
2023/04/19 03:01:49;;;;;;;;;;;;;;;10.74;nan;102720.78;5032057;28;20015;-85
2023/04/19 03:04:15;;;;;;;;;;;;;;;10.68;nan;102725.09;5030376;28;19917;-84
2023/04/19 03:06:43;;;;;;;;;;;;;;;10.69;nan;102720.56;5030936;28;19975;-83
2023/04/19 03:09:09;;;;;;;;;;;;;;;10.73;nan;102721.78;5039736;28;20378;-86
2023/04/19 03:11:35;;;;;;;;;;;;;;;10.76;nan;102714.16;5035327;28;20390;-84
2023/04/19 03:14:01;;;;;;;;;;;;;;;10.78;nan;102706.78;5027527;28;19974;-84
2023/04/19 03:16:26;;;;;;;;;;;;;;;10.80;nan;102706.56;5032583;28;19925;-83
2023/04/19 03:18:51;;;;;;;;;;;;;;;10.81;nan;102697.50;5036967;28;20285;-84
2023/04/19 03:21:17;;;;;;;;;;;;;;;10.81;nan;102692.13;5026777;28;19928;-83
2023/04/19 03:23:42;;;;;;;;;;;;;;;10.80;nan;102688.63;5025045;28;19944;-83
2023/04/19 03:26:08;;;;;;;;;;;;;;;10.82;nan;102688.44;5028790;28;20390;-86
2023/04/19 03:28:33;;;;;;;;;;;;;;;10.83;nan;102695.44;5031373;28;19925;-83
2023/04/19 03:30:59;;;;;;;;;;;;;;;10.84;nan;102689.06;5030279;28;20409;-84
2023/04/19 03:33:25;;;;;;;;;;;;;;;10.86;nan;102684.31;5033838;28;19929;-83
2023/04/19 03:35:50;;;;;;;;;;;;;;;10.84;nan;102684.50;5024658;28;19979;-84
2023/04/19 03:38:15;;;;;;;;;;;;;;;10.82;nan;102675.03;5032064;28;20383;-84
2023/04/19 03:40:41;;;;;;;;;;;;;;;10.82;nan;102666.97;5030159;28;19918;-83
2023/04/19 03:43:06;;;;;;;;;;;;;;;10.83;nan;102663.25;5030017;28;19979;-85
2023/04/19 03:45:31;;;;;;;;;;;;;;;10.83;nan;102661.41;5029790;28;20199;-83
2023/04/19 03:47:57;;;;;;;;;;;;;;;10.83;nan;102655.22;5028444;28;19924;-84
2023/04/19 03:50:22;;;;;;;;;;;;;;;10.82;nan;102649.03;5028621;28;19921;-86
2023/04/19 03:52:47;;;;;;;;;;;;;;;10.81;nan;102651.91;5027315;28;20146;-83
2023/04/19 03:55:13;;;;;;;;;;;;;;;10.80;nan;102655.63;5030540;28;19971;-85
2023/04/19 03:57:38;;;;;;;;;;;;;;;10.79;nan;102646.75;5024203;28;19925;-84
2023/04/19 04:00:07;;;;;;;;;;;;;;;10.79;nan;102645.94;5025913;28;19944;-84
2023/04/19 04:02:33;;;;;;;;;;;;;;;10.79;nan;102656.66;5028256;28;19917;-85
2023/04/19 04:04:58;;;;;;;;;;;;;;;10.82;nan;102648.22;5027566;28;19921;-84
2023/04/19 04:07:24;;;;;;;;;;;;;;;10.85;nan;102647.78;5027063;28;20012;-84
2023/04/19 04:09:50;;;;;;;;;;;;;;;10.82;nan;102651.72;5030853;28;19927;-86
2023/04/19 04:12:15;;;;;;;;;;;;;;;10.81;nan;102642.03;5029507;28;20298;-84
2023/04/19 04:14:41;;;;;;;;;;;;;;;10.83;nan;102644.50;5024948;28;19923;-84
2023/04/19 04:17:06;;;;;;;;;;;;;;;10.87;nan;102643.06;5026370;28;19928;-83
2023/04/19 04:19:31;;;;;;;;;;;;;;;10.85;nan;102653.97;5028306;28;19924;-83
2023/04/19 04:21:57;;;;;;;;;;;;;;;10.85;nan;102643.25;5023836;28;19937;-84
2023/04/19 04:24:57;;;;;;;;;;;;;;;10.86;nan;102642.22;5024042;28;20565;-84
2023/04/19 04:28:00;;;;;;;;;;;;;;;10.88;nan;102633.97;5017666;28;20351;-84
2023/04/19 04:30:27;;;;;;;;;;;;;;;10.91;nan;102638.94;5022438;28;19918;-83
2023/04/19 04:32:58;;;;;;;;;;;;;;;10.96;nan;102635.66;5023492;28;20143;-84
2023/04/19 04:35:43;;;;;;;;;;;;;;;10.98;nan;102636.28;5024678;28;20028;-84
2023/04/19 04:38:09;;;;;;;;;;;;;;;11.01;nan;102633.19;5020365;28;20106;-86
2023/04/19 04:40:38;;;;;;;;;;;;;;;11.03;nan;102629.25;5027936;28;20007;-86
2023/04/19 04:43:04;;;;;;;;;;;;;;;11.07;nan;102627.81;5025955;28;19925;-84
2023/04/19 04:45:30;;;;;;;;;;;;;;;11.12;nan;102625.31;5020859;28;20456;-85
2023/04/19 04:47:56;;;;;;;;;;;;;;;11.15;nan;102624.13;5021905;28;20382;-85
2023/04/19 04:50:21;;;;;;;;;;;;;;;11.17;nan;102622.88;5031396;28;20083;-84
2023/04/19 04:52:47;;;;;;;;;;;;;;;11.19;nan;102625.34;5028704;28;19921;-84
2023/04/19 04:55:12;;;;;;;;;;;;;;;11.24;nan;102622.84;5027449;28;20387;-84
2023/04/19 04:57:37;;;;;;;;;;;;;;;11.30;nan;102626.56;5031702;28;20444;-84
2023/04/19 05:00:04;;;;;;;;;;;;;;;11.36;nan;102621.22;5030567;28;20037;-84
2023/04/19 05:02:30;;;;;;;;;;;;;;;11.44;nan;102623.66;5035181;28;19921;-85
2023/04/19 05:04:55;;;;;;;;;;;;;;;11.51;nan;102621.00;5026067;28;19921;-84
2023/04/19 05:07:20;;;;;;;;;;;;;;;11.58;nan;102620.97;5025127;28;20345;-84
2023/04/19 05:09:46;;;;;;;;;;;;;;;11.64;nan;102622.81;5030443;28;19920;-84
2023/04/19 05:12:11;;;;;;;;;;;;;;;11.65;nan;102617.22;5029130;28;20343;-84
2023/04/19 05:14:39;;;;;;;;;;;;;;;11.68;nan;102618.69;5027077;28;19936;-84
2023/04/19 05:17:05;;;;;;;;;;;;;;;11.76;nan;102608.53;5031634;28;20019;-86
2023/04/19 05:19:30;;;;;;;;;;;;;;;11.85;nan;102609.19;5031824;28;20003;-84
2023/04/19 05:21:55;;;;;;;;;;;;;;;11.94;nan;102604.41;5025504;28;20071;-84
2023/04/19 05:24:21;;;;;;;;;;;;;;;12.02;nan;102601.47;5028251;28;20401;-84
2023/04/19 05:26:46;;;;;;;;;;;;;;;12.06;nan;102598.16;5023525;28;19921;-84
2023/04/19 05:29:12;;;;;;;;;;;;;;;12.14;nan;102596.25;5029557;28;20012;-83
2023/04/19 05:31:37;;;;;;;;;;;;;;;12.18;nan;102590.22;5025439;28;19921;-84
2023/04/19 05:34:02;;;;;;;;;;;;;;;12.20;nan;102590.84;5031948;28;19964;-84
2023/04/19 05:36:28;;;;;;;;;;;;;;;12.22;nan;102591.47;5030499;28;19947;-84
2023/04/19 05:38:54;;;;;;;;;;;;;;;12.22;nan;102588.78;5027143;28;20068;-85
2023/04/19 05:41:20;;;;;;;;;;;;;;;12.29;nan;102592.25;5027359;28;19928;-85
2023/04/19 05:43:46;;;;;;;;;;;;;;;12.34;nan;102591.59;5026289;28;19924;-84
2023/04/19 05:46:11;;;;;;;;;;;;;;;12.44;nan;102593.84;5031118;28;20360;-86
2023/04/19 05:48:36;;;;;;;;;;;;;;;12.55;nan;102582.38;5027699;28;20291;-84
2023/04/19 05:51:02;;;;;;;;;;;;;;;12.67;nan;102591.41;5031392;28;19917;-84
2023/04/19 05:53:28;;;;;;;;;;;;;;;12.78;nan;102582.66;5033062;28;20465;-85
2023/04/19 05:55:53;;;;;;;;;;;;;;;12.89;nan;102584.63;5020922;28;19928;-85
2023/04/19 05:58:20;;;;;;;;;;;;;;;12.97;nan;102579.00;5030390;28;20458;-84
2023/04/19 06:00:45;;;;;;;;;;;;;;;13.10;nan;102579.91;5034414;28;19932;-84
2023/04/19 06:03:26;;;;;;;;;;;;;;;13.19;nan;102575.94;5026776;28;19921;-85
2023/04/19 06:05:51;;;;;;;;;;;;;;;13.31;nan;102582.25;5028141;28;20461;-84
2023/04/19 06:08:17;;;;;;;;;;;;;;;13.44;nan;102576.72;5031599;28;20003;-86
2023/04/19 06:10:46;;;;;;;;;;;;;;;13.56;nan;102564.19;5028078;28;19971;-84
2023/04/19 06:13:13;;;;;;;;;;;;;;;13.66;nan;102562.84;5022955;28;19927;-86
2023/04/19 06:15:39;;;;;;;;;;;;;;;13.77;nan;102575.56;5028842;28;20051;-84
2023/04/19 06:18:08;;;;;;;;;;;;;;;13.87;nan;102571.28;5031688;28;20538;-84
2023/04/19 06:20:34;;;;;;;;;;;;;;;13.99;nan;102563.25;5026753;28;19916;-84
2023/04/19 06:23:00;;;;;;;;;;;;;;;14.08;nan;102569.16;5024073;28;20280;-85
2023/04/19 06:25:25;;;;;;;;;;;;;;;14.19;nan;102566.53;5031038;28;20104;-84
2023/04/19 06:27:50;;;;;;;;;;;;;;;14.32;nan;102576.31;5030467;28;20027;-85
2023/04/19 06:30:16;;;;;;;;;;;;;;;14.43;nan;102569.31;5026293;28;20203;-84
2023/04/19 06:32:41;;;;;;;;;;;;;;;14.57;nan;102556.50;5025804;28;19971;-84
2023/04/19 06:35:07;;;;;;;;;;;;;;;14.73;nan;102563.94;5030045;28;19921;-84
2023/04/19 06:37:32;;;;;;;;;;;;;;;14.82;nan;102557.13;5025225;28;20389;-85
2023/04/19 06:39:58;;;;;;;;;;;;;;;14.89;nan;102570.50;5025018;28;20012;-83
2023/04/19 06:42:24;;;;;;;;;;;;;;;14.92;nan;102553.88;5027399;28;19921;-84
2023/04/19 06:44:50;;;;;;;;;;;;;;;14.98;nan;102563.72;5033202;28;19925;-85
2023/04/19 06:47:15;;;;;;;;;;;;;;;15.07;nan;102565.00;5024342;28;19924;-86
2023/04/19 06:49:41;;;;;;;;;;;;;;;15.07;nan;102565.84;5027014;28;20371;-84
2023/04/19 06:52:06;;;;;;;;;;;;;;;15.11;nan;102567.03;5021748;28;20390;-86
2023/04/19 06:54:55;;;;;;;;;;;;;;;15.16;nan;102558.22;5023372;28;20062;-84
2023/04/19 06:57:35;;;;;;;;;;;;;;;15.23;nan;102564.31;5024689;28;19960;-85
2023/04/19 07:00:32;;;;;;;;;;;;;;;15.30;nan;102553.41;5023980;28;19917;-85
2023/04/19 07:03:00;;;;;;;;;;;;;;;15.39;nan;102551.97;5033262;28;19921;-85
2023/04/19 07:05:28;;;;;;;;;;;;;;;15.55;nan;102545.03;5023617;28;19967;-86
2023/04/19 07:08:45;;;;;;;;;;;;;;;15.67;nan;102545.88;5020361;28;19978;-85
2023/04/19 07:11:11;;;;;;;;;;;;;;;15.78;nan;102542.31;5026176;28;19932;-84
2023/04/19 07:13:36;;;;;;;;;;;;;;;15.94;nan;102549.66;5025242;28;19917;-85
2023/04/19 07:16:06;;;;;;;;;;;;;;;16.10;nan;102541.84;5025029;28;19921;-84
2023/04/19 07:18:31;;;;;;;;;;;;;;;16.25;nan;102539.44;5025516;28;19960;-84
2023/04/19 07:20:57;;;;;;;;;;;;;;;16.37;nan;102537.50;5012503;28;19921;-87
2023/04/19 07:23:22;;;;;;;;;;;;;;;16.41;nan;102527.84;5022729;28;19925;-84
2023/04/19 07:25:47;;;;;;;;;;;;;;;16.48;nan;102524.97;5026348;28;20405;-84
2023/04/19 07:28:14;;;;;;;;;;;;;;;16.47;nan;102526.03;5026010;28;19917;-85
2023/04/19 07:30:40;;;;;;;;;;;;;;;16.47;nan;102517.91;5031759;28;19983;-84
2023/04/19 07:33:07;;;;;;;;;;;;;;;16.48;nan;102522.25;5026375;28;19968;-85
2023/04/19 07:35:32;;;;;;;;;;;;;;;16.56;nan;102513.75;5025329;28;19924;-86
2023/04/19 07:37:58;;;;;;;;;;;;;;;16.68;nan;102511.00;5022862;28;19921;-85
2023/04/19 07:40:23;;;;;;;;;;;;;;;16.71;nan;102505.09;5021561;28;19936;-84
2023/04/19 07:42:48;;;;;;;;;;;;;;;16.67;nan;102498.53;5022997;28;19925;-86
2023/04/19 07:45:14;;;;;;;;;;;;;;;16.65;nan;102509.56;5029778;28;19916;-84
2023/04/19 07:47:39;;;;;;;;;;;;;;;16.68;nan;102506.41;5030194;28;19928;-86
2023/04/19 07:50:06;;;;;;;;;;;;;;;16.62;nan;102510.88;5020737;28;19928;-85
2023/04/19 07:52:31;;;;;;;;;;;;;;;16.63;nan;102501.69;5025368;28;19921;-85
2023/04/19 07:54:57;;;;;;;;;;;;;;;16.67;nan;102498.53;5026589;28;19928;-86
2023/04/19 07:57:22;;;;;;;;;;;;;;;16.70;nan;102492.66;5030223;28;19924;-84
2023/04/19 07:59:48;;;;;;;;;;;;;;;16.66;nan;102492.25;5030278;28;20529;-84
2023/04/19 08:02:15;;;;;;;;;;;;;;;16.75;nan;102485.41;5027568;28;20367;-85
2023/04/19 08:04:40;;;;;;;;;;;;;;;16.76;nan;102491.66;5026620;28;19917;-84
2023/04/19 08:07:08;;;;;;;;;;;;;;;16.78;nan;102487.63;5028281;28;19925;-88
2023/04/19 08:09:33;;;;;;;;;;;;;;;16.82;nan;102487.94;5024907;28;20031;-85
2023/04/19 08:12:00;;;;;;;;;;;;;;;16.90;nan;102492.94;5027290;28;20425;-85
2023/04/19 08:14:25;;;;;;;;;;;;;;;17.03;nan;102486.34;5027661;28;20112;-86
2023/04/19 08:16:51;;;;;;;;;;;;;;;17.19;nan;102482.78;5026064;28;20481;-85
2023/04/19 08:19:16;;;;;;;;;;;;;;;17.38;nan;102472.47;5025104;28;19978;-84
2023/04/19 08:21:41;;;;;;;;;;;;;;;17.52;nan;102474.56;5025536;28;20294;-85
2023/04/19 08:24:07;;;;;;;;;;;;;;;17.61;nan;102477.66;5027970;28;19917;-84
2023/04/19 08:26:32;;;;;;;;;;;;;;;17.64;nan;102474.44;5029388;28;19928;-86
2023/04/19 08:28:58;;;;;;;;;;;;;;;17.67;nan;102476.63;5022889;28;19927;-86
2023/04/19 08:31:23;;;;;;;;;;;;;;;17.70;nan;102476.16;5027085;28;19925;-85
2023/04/19 08:33:48;;;;;;;;;;;;;;;17.65;nan;102467.94;5027188;28;20371;-84
2023/04/19 08:36:15;;;;;;;;;;;;;;;17.58;nan;102478.13;5029514;28;19924;-86
2023/04/19 08:38:40;;;;;;;;;;;;;;;17.64;nan;102469.00;5023626;28;19925;-86
2023/04/19 08:41:06;;;;;;;;;;;;;;;17.78;nan;102466.78;5023946;28;19975;-86
2023/04/19 08:43:34;;;;;;;;;;;;;;;17.94;nan;102459.59;5029515;28;19921;-85
2023/04/19 08:46:01;;;;;;;;;;;;;;;18.00;nan;102469.44;5027392;28;19921;-85
2023/04/19 08:48:27;;;;;;;;;;;;;;;18.00;nan;102469.44;5027185;28;19928;-85
2023/04/19 08:50:53;;;;;;;;;;;;;;;17.98;nan;102471.59;5029228;28;19921;-85
2023/04/19 08:53:18;;;;;;;;;;;;;;;17.90;nan;102453.84;5027607;28;19925;-84
2023/04/19 08:55:47;;;;;;;;;;;;;;;17.89;nan;102454.94;5027984;28;19925;-85
2023/04/19 08:58:12;;;;;;;;;;;;;;;18.01;nan;102452.91;5028174;28;20008;-84
2023/04/19 09:00:38;;;;;;;;;;;;;;;18.18;nan;102449.25;5026992;28;20008;-85
2023/04/19 09:03:05;;;;;;;;;;;;;;;18.30;nan;102448.00;5028494;28;20082;-84
2023/04/19 09:05:30;;;;;;;;;;;;;;;18.46;nan;102456.25;5030888;28;20505;-85
2023/04/19 09:08:16;;;;;;;;;;;;;;;18.60;nan;102452.84;5025601;28;19917;-84
2023/04/19 09:10:51;;;;;;;;;;;;;;;18.68;nan;102444.28;5023392;28;20014;-86
2023/04/19 09:13:17;;;;;;;;;;;;;;;18.71;nan;102432.06;5023560;28;19921;-85
2023/04/19 09:15:43;;;;;;;;;;;;;;;18.84;nan;102434.28;5022284;28;19925;-84
2023/04/19 09:18:24;;;;;;;;;;;;;;;19.02;nan;102428.41;5026325;28;19925;-85
2023/04/19 09:20:55;;;;;;;;;;;;;;;19.25;nan;102429.91;5025745;28;19925;-85
2023/04/19 09:23:24;;;;;;;;;;;;;;;19.35;nan;102428.28;5027883;28;19929;-84
2023/04/19 09:26:05;;;;;;;;;;;;;;;19.44;nan;102422.09;5037933;28;19952;-85
2023/04/19 09:28:31;;;;;;;;;;;;;;;19.57;nan;102413.47;5030013;28;19970;-84
2023/04/19 09:30:57;;;;;;;;;;;;;;;19.68;nan;102418.91;5033076;28;19917;-85
2023/04/19 09:33:38;;;;;;;;;;;;;;;19.80;nan;102412.16;5041046;28;19924;-84
2023/04/19 09:36:04;;;;;;;;;;;;;;;19.98;nan;102410.81;5038563;28;20397;-84
2023/04/19 09:38:29;;;;;;;;;;;;;;;20.16;nan;102406.75;5029904;28;19920;-84
2023/04/19 09:41:07;;;;;;;;;;;;;;;20.27;nan;102413.78;5029231;28;19936;-85
2023/04/19 09:43:33;;;;;;;;;;;;;;;20.37;nan;102408.38;5031604;28;19931;-85
2023/04/19 09:45:58;;;;;;;;;;;;;;;20.49;nan;102408.94;5036373;28;20520;-84
2023/04/19 09:48:24;;;;;;;;;;;;;;;20.48;nan;102411.94;5029126;28;19917;-85
2023/04/19 09:50:50;;;;;;;;;;;;;;;20.51;nan;102401.31;5036116;28;19921;-84
2023/04/19 09:53:16;;;;;;;;;;;;;;;20.50;nan;102404.31;5029442;28;19917;-84
2023/04/19 09:55:43;;;;;;;;;;;;;;;20.50;nan;102401.59;5041149;28;19928;-85
2023/04/19 09:58:08;;;;;;;;;;;;;;;20.51;nan;102390.41;5028854;28;19913;-83
2023/04/19 10:00:34;;;;;;;;;;;;;;;20.51;nan;102384.97;5032378;28;19917;-84
2023/04/19 10:03:00;;;;;;;;;;;;;;;20.53;nan;102395.56;5034216;28;19921;-84
2023/04/19 10:05:25;;;;;;;;;;;;;;;20.62;nan;102390.38;5031090;28;19921;-83
2023/04/19 10:07:51;;;;;;;;;;;;;;;20.65;nan;102396.09;5032217;28;19916;-85
2023/04/19 10:10:17;;;;;;;;;;;;;;;20.66;nan;102391.47;5032009;28;19917;-84
2023/04/19 10:12:49;;;;;;;;;;;;;;;20.61;nan;102378.66;5030891;28;19917;-83
2023/04/19 10:15:30;;;;;;;;;;;;;;;20.71;nan;102377.84;5027103;28;20425;-85
2023/04/19 10:17:56;;;;;;;;;;;;;;;20.79;nan;102369.91;5027945;28;19932;-84
2023/04/19 10:20:28;;;;;;;;;;;;;;;20.86;nan;102380.53;5037681;28;19931;-84
2023/04/19 10:22:53;;;;;;;;;;;;;;;20.95;nan;102367.13;5031102;28;19932;-85
2023/04/19 10:25:27;;;;;;;;;;;;;;;21.03;nan;102363.84;5033175;28;19925;-85
2023/04/19 10:27:52;;;;;;;;;;;;;;;21.05;nan;102362.47;5028871;28;19963;-86
2023/04/19 10:30:18;;;;;;;;;;;;;;;21.06;nan;102358.63;5029742;28;19933;-84
2023/04/19 10:32:44;;;;;;;;;;;;;;;20.99;nan;102368.19;5031053;28;19917;-84
2023/04/19 10:35:15;;;;;;;;;;;;;;;21.00;nan;102367.09;5028876;28;19927;-84
2023/04/19 10:38:00;;;;;;;;;;;;;;;21.07;nan;102362.19;5031638;28;19920;-84
2023/04/19 10:40:44;;;;;;;;;;;;;;;21.02;nan;102362.22;5035341;28;19917;-85
2023/04/19 10:43:13;;;;;;;;;;;;;;;20.96;nan;102360.59;5028754;28;19936;-86
2023/04/19 10:45:39;;;;;;;;;;;;;;;20.91;nan;102360.59;5034712;28;19921;-84
2023/04/19 10:48:04;;;;;;;;;;;;;;;20.81;nan;102354.09;5030788;28;19921;-84
2023/04/19 10:50:51;;;;;;;;;;;;;;;20.78;nan;102341.03;5029795;28;19963;-84
2023/04/19 10:53:35;;;;;;;;;;;;;;;20.90;nan;102338.00;5027673;28;20371;-85
2023/04/19 10:56:01;;;;;;;;;;;;;;;20.86;nan;102336.94;5032376;28;20021;-84
2023/04/19 10:58:29;;;;;;;;;;;;;;;20.83;nan;102326.59;5036417;28;19966;-86
2023/04/19 11:01:13;;;;;;;;;;;;;;;20.84;nan;102324.69;5028890;28;19921;-84
2023/04/19 11:03:44;;;;;;;;;;;;;;;20.82;nan;102316.75;5033978;28;19955;-85
2023/04/19 11:06:18;;;;;;;;;;;;;;;20.76;nan;102318.72;5034136;28;19924;-85
2023/04/19 11:08:44;;;;;;;;;;;;;;;20.85;nan;102312.69;5030304;28;19917;-84
2023/04/19 11:11:09;;;;;;;;;;;;;;;20.91;nan;102300.66;5031805;28;20012;-84
2023/04/19 11:13:35;;;;;;;;;;;;;;;21.05;nan;102297.06;5032591;28;19992;-84
2023/04/19 11:16:06;;;;;;;;;;;;;;;21.16;nan;102291.53;5033145;28;19940;-84
2023/04/19 11:18:41;;;;;;;;;;;;;;;21.12;nan;102296.75;5033836;28;19921;-83
2023/04/19 11:21:27;;;;;;;;;;;;;;;20.98;nan;102293.00;5033323;28;19940;-83
2023/04/19 11:24:32;;;;;;;;;;;;;;;21.05;nan;102301.69;5046754;28;19983;-86
2023/04/19 11:26:58;;;;;;;;;;;;;;;21.25;nan;102289.88;5032872;28;21525;-84
2023/04/19 11:29:24;;;;;;;;;;;;;;;21.46;nan;102279.66;5030889;28;19922;-84
2023/04/19 11:31:49;;;;;;;;;;;;;;;21.55;nan;102283.41;5032159;28;19921;-84
2023/04/19 11:34:15;;;;;;;;;;;;;;;21.63;nan;102275.41;5035473;28;19921;-85
2023/04/19 11:36:50;;;;;;;;;;;;;;;21.55;nan;102262.41;5037657;28;19921;-86
2023/04/19 11:39:15;;;;;;;;;;;;;;;21.47;nan;102276.63;5031127;28;20390;-85
2023/04/19 11:41:41;;;;;;;;;;;;;;;21.40;nan;102270.69;5033400;28;19917;-86
2023/04/19 11:44:16;;;;;;;;;;;;;;;21.25;nan;102268.91;5033825;28;20071;-84
2023/04/19 11:46:42;;;;;;;;;;;;;;;21.16;nan;102265.09;5038480;28;19924;-86
2023/04/19 11:49:07;;;;;;;;;;;;;;;21.09;nan;102267.31;5034168;28;20020;-85
2023/04/19 11:51:33;;;;;;;;;;;;;;;20.97;nan;102270.38;5037440;28;20011;-84
2023/04/19 11:53:58;;;;;;;;;;;;;;;20.86;nan;102265.28;5035630;28;20420;-85
2023/04/19 11:56:23;;;;;;;;;;;;;;;20.87;nan;102266.91;5031478;28;19920;-84
2023/04/19 11:58:49;;;;;;;;;;;;;;;20.92;nan;102261.44;5032155;28;19925;-84
2023/04/19 12:01:18;;;;;;;;;;;;;;;20.96;nan;102259.75;5032687;28;19917;-86
2023/04/19 12:03:53;;;;;;;;;;;;;;;20.95;nan;102258.13;5034198;28;19927;-85
2023/04/19 12:06:49;;;;;;;;;;;;;;;20.87;nan;102236.94;5025875;28;20032;-84
2023/04/19 12:09:19;;;;;;;;;;;;;;;20.79;nan;102239.16;5034778;28;20375;-85
2023/04/19 12:11:48;;;;;;;;;;;;;;;20.80;nan;102243.50;5030638;28;19952;-84
2023/04/19 12:14:15;;;;;;;;;;;;;;;20.80;nan;102248.94;5039622;28;19927;-86
2023/04/19 12:16:40;;;;;;;;;;;;;;;20.85;nan;102236.41;5032296;28;19928;-85
2023/04/19 12:19:12;;;;;;;;;;;;;;;20.83;nan;102239.44;5031710;28;19925;-84
2023/04/19 12:21:38;;;;;;;;;;;;;;;20.76;nan;102239.72;5036396;28;19979;-85
2023/04/19 12:24:04;;;;;;;;;;;;;;;20.63;nan;102232.16;5035461;28;20371;-84
2023/04/19 12:26:29;;;;;;;;;;;;;;;20.64;nan;102239.22;5032059;28;19936;-84
2023/04/19 12:28:55;;;;;;;;;;;;;;;20.66;nan;102239.78;5029297;28;19974;-85
2023/04/19 12:31:39;;;;;;;;;;;;;;;20.66;nan;102222.63;5033864;28;19936;-85
2023/04/19 12:34:05;;;;;;;;;;;;;;;20.73;nan;102221.22;5034169;28;20480;-84
2023/04/19 12:36:31;;;;;;;;;;;;;;;20.77;nan;102208.66;5032844;28;20064;-85
2023/04/19 12:39:34;;;;;;;;;;;;;;;20.81;nan;102215.16;5045094;28;19932;-84
2023/04/19 12:42:00;;;;;;;;;;;;;;;20.81;nan;102215.16;5030948;28;20742;-85
2023/04/19 12:44:25;;;;;;;;;;;;;;;20.87;nan;102212.44;5035238;28;19920;-85
2023/04/19 12:46:54;;;;;;;;;;;;;;;20.98;nan;102216.69;5033467;28;19917;-85
2023/04/19 12:49:23;;;;;;;;;;;;;;;20.91;nan;102214.31;5032825;28;19971;-85
2023/04/19 12:51:49;;;;;;;;;;;;;;;20.86;nan;102210.81;5036366;28;20019;-85
2023/04/19 12:54:15;;;;;;;;;;;;;;;20.75;nan;102199.94;5032492;28;20033;-84
2023/04/19 12:56:40;;;;;;;;;;;;;;;20.78;nan;102207.56;5026175;28;19925;-86
2023/04/19 12:59:06;;;;;;;;;;;;;;;20.93;nan;102211.28;5044120;28;20106;-84